Terminal Aerodrome Forecast
Issued by NWS

Home | Current Version | Previous Version | Text Only | Print | Product List | Glossary On
Versions: 1 2 3 4 5 6 7 8 9 10 11 12 13 14 15 16 17 18 19 20 21 22 23 24
000
FTAK31 PAFA 280530
TAFAOT
TAF
PAOT 280530Z 2806/2906 32004KT P6SM FEW050 FEW100 SCT200
     FM281500 VRB04KT P6SM -SHRA SCT024 OVC045
     FM281900 15013KT P6SM VCSH SCT020 OVC035=

USA.gov is the U.S. government's official web portal to all federal, state and local government web resources and services.